sensor_id;sensor_type;location;lat;lon;timestamp;pressure;altitude;pressure_sealevel;temperature;humidity
71165;BME280;58859;55.132;-1.586;2023-06-14T00:01:36;101729.47;;;23.55;100.00
71165;BME280;58859;55.132;-1.586;2023-06-14T00:04:03;101731.50;;;22.94;100.00
71165;BME280;58859;55.132;-1.586;2023-06-14T00:06:31;101730.69;;;23.26;100.00
71165;BME280;58859;55.132;-1.586;2023-06-14T00:08:56;101731.31;;;23.35;100.00
71165;BME280;58859;55.132;-1.586;2023-06-14T00:11:22;101733.56;;;23.58;100.00
71165;BME280;58859;55.132;-1.586;2023-06-14T00:13:47;101727.84;;;23.48;100.00
71165;BME280;58859;55.132;-1.586;2023-06-14T00:16:12;101732.53;;;23.19;100.00
71165;BME280;58859;55.132;-1.586;2023-06-14T00:18:38;101730.06;;;23.51;100.00
71165;BME280;58859;55.132;-1.586;2023-06-14T00:21:04;101736.03;;;23.53;100.00
71165;BME280;58859;55.132;-1.586;2023-06-14T00:23:30;101732.94;;;23.49;100.00
71165;BME280;58859;55.132;-1.586;2023-06-14T00:25:55;101728.66;;;22.96;100.00
71165;BME280;58859;55.132;-1.586;2023-06-14T00:28:21;101729.06;;;23.25;100.00
71165;BME280;58859;55.132;-1.586;2023-06-14T00:30:46;101735.97;;;23.33;100.00
71165;BME280;58859;55.132;-1.586;2023-06-14T00:33:12;101730.50;;;23.41;100.00
71165;BME280;58859;55.132;-1.586;2023-06-14T00:35:37;101735.38;;;23.57;100.00
71165;BME280;58859;55.132;-1.586;2023-06-14T00:38:03;101728.44;;;23.10;100.00
71165;BME280;58859;55.132;-1.586;2023-06-14T00:40:28;101725.34;;;22.74;100.00
71165;BME280;58859;55.132;-1.586;2023-06-14T00:42:54;101730.88;;;23.05;100.00
71165;BME280;58859;55.132;-1.586;2023-06-14T00:45:19;101738.84;;;22.92;100.00
71165;BME280;58859;55.132;-1.586;2023-06-14T00:47:46;101729.03;;;22.99;100.00
71165;BME280;58859;55.132;-1.586;2023-06-14T00:50:11;101740.47;;;22.80;100.00
71165;BME280;58859;55.132;-1.586;2023-06-14T00:52:38;101733.56;;;23.18;100.00
71165;BME280;58859;55.132;-1.586;2023-06-14T00:55:04;101733.53;;;22.85;100.00
71165;BME280;58859;55.132;-1.586;2023-06-14T00:57:30;101738.63;;;22.80;100.00
71165;BME280;58859;55.132;-1.586;2023-06-14T00:59:56;101733.94;;;22.82;100.00
71165;BME280;58859;55.132;-1.586;2023-06-14T01:02:21;101744.31;;;22.71;100.00
71165;BME280;58859;55.132;-1.586;2023-06-14T01:04:48;101739.66;;;22.79;100.00
71165;BME280;58859;55.132;-1.586;2023-06-14T01:07:40;101744.75;;;22.74;100.00
71165;BME280;58859;55.132;-1.586;2023-06-14T01:10:37;101742.75;;;23.16;100.00
71165;BME280;58859;55.132;-1.586;2023-06-14T01:13:21;101737.63;;;22.95;100.00
71165;BME280;58859;55.132;-1.586;2023-06-14T01:15:49;101735.16;;;22.80;100.00
71165;BME280;58859;55.132;-1.586;2023-06-14T01:18:16;101740.09;;;22.89;100.00
71165;BME280;58859;55.132;-1.586;2023-06-14T01:20:46;101747.09;;;22.56;100.00
71165;BME280;58859;55.132;-1.586;2023-06-14T01:23:16;101745.09;;;22.58;100.00
71165;BME280;58859;55.132;-1.586;2023-06-14T01:25:42;101729.91;;;22.32;100.00
71165;BME280;58859;55.132;-1.586;2023-06-14T01:28:10;101740.22;;;22.68;100.00
71165;BME280;58859;55.132;-1.586;2023-06-14T01:30:42;101740.38;;;22.00;100.00
71165;BME280;58859;55.132;-1.586;2023-06-14T01:33:12;101737.06;;;21.91;100.00
71165;BME280;58859;55.132;-1.586;2023-06-14T01:35:39;101736.31;;;22.04;100.00
71165;BME280;58859;55.132;-1.586;2023-06-14T01:38:06;101741.00;;;21.67;100.00
71165;BME280;58859;55.132;-1.586;2023-06-14T01:40:34;101737.59;;;22.14;100.00
71165;BME280;58859;55.132;-1.586;2023-06-14T01:43:01;101739.75;;;22.52;100.00
71165;BME280;58859;55.132;-1.586;2023-06-14T01:45:28;101743.50;;;22.64;100.00
71165;BME280;58859;55.132;-1.586;2023-06-14T01:47:54;101737.97;;;22.59;100.00
71165;BME280;58859;55.132;-1.586;2023-06-14T01:50:20;101739.31;;;22.35;100.00
71165;BME280;58859;55.132;-1.586;2023-06-14T01:52:46;101733.13;;;22.15;100.00
71165;BME280;58859;55.132;-1.586;2023-06-14T01:55:11;101733.69;;;22.04;100.00
71165;BME280;58859;55.132;-1.586;2023-06-14T01:57:37;101732.66;;;22.59;100.00
71165;BME280;58859;55.132;-1.586;2023-06-14T02:00:04;101725.25;;;22.41;100.00
71165;BME280;58859;55.132;-1.586;2023-06-14T02:02:33;101728.00;;;22.07;100.00
71165;BME280;58859;55.132;-1.586;2023-06-14T02:04:58;101728.84;;;22.20;100.00
71165;BME280;58859;55.132;-1.586;2023-06-14T02:07:24;101734.59;;;22.24;100.00
71165;BME280;58859;55.132;-1.586;2023-06-14T02:09:49;101729.28;;;22.24;100.00
71165;BME280;58859;55.132;-1.586;2023-06-14T02:12:15;101734.47;;;22.52;100.00
71165;BME280;58859;55.132;-1.586;2023-06-14T02:14:40;101734.91;;;22.62;100.00
71165;BME280;58859;55.132;-1.586;2023-06-14T02:17:05;101741.13;;;22.34;100.00
71165;BME280;58859;55.132;-1.586;2023-06-14T02:19:31;101733.53;;;22.18;100.00
71165;BME280;58859;55.132;-1.586;2023-06-14T02:21:57;101734.94;;;21.80;100.00
71165;BME280;58859;55.132;-1.586;2023-06-14T02:24:22;101726.72;;;21.96;100.00
71165;BME280;58859;55.132;-1.586;2023-06-14T02:26:48;101740.50;;;21.85;100.00
71165;BME280;58859;55.132;-1.586;2023-06-14T02:29:14;101743.63;;;21.95;100.00
71165;BME280;58859;55.132;-1.586;2023-06-14T02:31:40;101735.94;;;22.07;100.00
71165;BME280;58859;55.132;-1.586;2023-06-14T02:34:06;101723.22;;;21.89;100.00
71165;BME280;58859;55.132;-1.586;2023-06-14T02:36:34;101730.84;;;22.12;100.00
71165;BME280;58859;55.132;-1.586;2023-06-14T02:39:00;101734.38;;;22.25;100.00
71165;BME280;58859;55.132;-1.586;2023-06-14T02:41:25;101735.41;;;22.31;100.00
71165;BME280;58859;55.132;-1.586;2023-06-14T02:43:51;101736.75;;;22.07;100.00
71165;BME280;58859;55.132;-1.586;2023-06-14T02:46:17;101728.59;;;22.09;100.00
71165;BME280;58859;55.132;-1.586;2023-06-14T02:48:43;101738.22;;;22.16;100.00
71165;BME280;58859;55.132;-1.586;2023-06-14T02:51:08;101738.63;;;22.13;100.00
71165;BME280;58859;55.132;-1.586;2023-06-14T02:53:35;101737.75;;;22.06;100.00
71165;BME280;58859;55.132;-1.586;2023-06-14T02:56:01;101735.44;;;21.90;100.00
71165;BME280;58859;55.132;-1.586;2023-06-14T02:58:26;101742.28;;;21.01;100.00
71165;BME280;58859;55.132;-1.586;2023-06-14T03:00:52;101743.31;;;21.84;100.00
71165;BME280;58859;55.132;-1.586;2023-06-14T03:03:20;101737.94;;;21.98;100.00
71165;BME280;58859;55.132;-1.586;2023-06-14T03:05:47;101746.13;;;21.75;100.00
71165;BME280;58859;55.132;-1.586;2023-06-14T03:08:15;101749.44;;;21.84;100.00
71165;BME280;58859;55.132;-1.586;2023-06-14T03:10:50;101744.09;;;22.12;100.00
71165;BME280;58859;55.132;-1.586;2023-06-14T03:13:16;101740.66;;;22.18;100.00
71165;BME280;58859;55.132;-1.586;2023-06-14T03:15:42;101744.63;;;21.94;100.00
71165;BME280;58859;55.132;-1.586;2023-06-14T03:18:08;101747.00;;;22.23;100.00
71165;BME280;58859;55.132;-1.586;2023-06-14T03:20:41;101745.28;;;21.96;100.00
71165;BME280;58859;55.132;-1.586;2023-06-14T03:23:08;101747.78;;;22.17;100.00
71165;BME280;58859;55.132;-1.586;2023-06-14T03:25:33;101744.50;;;22.09;100.00
71165;BME280;58859;55.132;-1.586;2023-06-14T03:28:06;101747.09;;;21.96;100.00
71165;BME280;58859;55.132;-1.586;2023-06-14T03:30:31;101738.88;;;21.56;100.00
71165;BME280;58859;55.132;-1.586;2023-06-14T03:32:57;101743.69;;;21.46;100.00
71165;BME280;58859;55.132;-1.586;2023-06-14T03:35:23;101745.66;;;22.00;100.00
71165;BME280;58859;55.132;-1.586;2023-06-14T03:37:49;101746.16;;;22.10;100.00
71165;BME280;58859;55.132;-1.586;2023-06-14T03:40:18;101755.00;;;21.61;100.00
71165;BME280;58859;55.132;-1.586;2023-06-14T03:42:43;101752.91;;;21.85;100.00
71165;BME280;58859;55.132;-1.586;2023-06-14T03:45:09;101758.56;;;21.75;100.00
71165;BME280;58859;55.132;-1.586;2023-06-14T03:47:35;101745.72;;;22.06;100.00
71165;BME280;58859;55.132;-1.586;2023-06-14T03:50:01;101750.19;;;21.99;100.00
71165;BME280;58859;55.132;-1.586;2023-06-14T03:52:27;101751.34;;;21.90;100.00
71165;BME280;58859;55.132;-1.586;2023-06-14T03:54:53;101761.16;;;21.96;100.00
71165;BME280;58859;55.132;-1.586;2023-06-14T03:57:19;101752.09;;;21.84;100.00
71165;BME280;58859;55.132;-1.586;2023-06-14T03:59:45;101756.25;;;21.93;100.00
71165;BME280;58859;55.132;-1.586;2023-06-14T04:02:10;101761.16;;;21.96;100.00
71165;BME280;58859;55.132;-1.586;2023-06-14T04:04:37;101759.00;;;22.19;100.00
71165;BME280;58859;55.132;-1.586;2023-06-14T04:07:03;101763.56;;;21.91;100.00
71165;BME280;58859;55.132;-1.586;2023-06-14T04:09:31;101770.56;;;22.05;100.00
71165;BME280;58859;55.132;-1.586;2023-06-14T04:11:57;101765.13;;;21.86;100.00
71165;BME280;58859;55.132;-1.586;2023-06-14T04:14:22;101767.34;;;21.27;100.00
71165;BME280;58859;55.132;-1.586;2023-06-14T04:16:48;101768.84;;;21.08;100.00
71165;BME280;58859;55.132;-1.586;2023-06-14T04:19:15;101767.75;;;21.79;100.00
71165;BME280;58859;55.132;-1.586;2023-06-14T04:21:41;101778.38;;;21.30;100.00
71165;BME280;58859;55.132;-1.586;2023-06-14T04:24:07;101775.91;;;21.29;100.00
71165;BME280;58859;55.132;-1.586;2023-06-14T04:26:38;101772.63;;;21.75;100.00
71165;BME280;58859;55.132;-1.586;2023-06-14T04:29:04;101778.75;;;21.76;100.00
71165;BME280;58859;55.132;-1.586;2023-06-14T04:31:31;101771.75;;;21.96;100.00
71165;BME280;58859;55.132;-1.586;2023-06-14T04:33:59;101788.34;;;22.11;100.00
71165;BME280;58859;55.132;-1.586;2023-06-14T04:36:24;101788.41;;;22.24;100.00
71165;BME280;58859;55.132;-1.586;2023-06-14T04:38:50;101777.78;;;21.28;100.00
71165;BME280;58859;55.132;-1.586;2023-06-14T04:41:20;101787.03;;;21.17;100.00
71165;BME280;58859;55.132;-1.586;2023-06-14T04:43:48;101793.03;;;20.90;100.00
71165;BME280;58859;55.132;-1.586;2023-06-14T04:46:14;101791.63;;;21.58;100.00
71165;BME280;58859;55.132;-1.586;2023-06-14T04:48:41;101795.63;;;21.47;100.00
71165;BME280;58859;55.132;-1.586;2023-06-14T04:51:10;101790.91;;;21.43;100.00
71165;BME280;58859;55.132;-1.586;2023-06-14T04:53:36;101794.53;;;21.63;100.00
71165;BME280;58859;55.132;-1.586;2023-06-14T04:56:02;101801.00;;;21.54;100.00
71165;BME280;58859;55.132;-1.586;2023-06-14T04:58:28;101798.72;;;21.51;100.00
71165;BME280;58859;55.132;-1.586;2023-06-14T05:00:54;101795.06;;;22.07;100.00
71165;BME280;58859;55.132;-1.586;2023-06-14T05:03:21;101794.28;;;22.13;100.00
71165;BME280;58859;55.132;-1.586;2023-06-14T05:05:46;101804.84;;;21.86;100.00
71165;BME280;58859;55.132;-1.586;2023-06-14T05:08:12;101809.25;;;22.00;100.00
71165;BME280;58859;55.132;-1.586;2023-06-14T05:10:38;101803.41;;;22.11;100.00
71165;BME280;58859;55.132;-1.586;2023-06-14T05:13:04;101783.41;;;22.02;100.00
71165;BME280;58859;55.132;-1.586;2023-06-14T05:15:30;101812.53;;;22.36;100.00
71165;BME280;58859;55.132;-1.586;2023-06-14T05:17:55;101810.63;;;22.71;100.00
71165;BME280;58859;55.132;-1.586;2023-06-14T05:20:24;101807.72;;;22.59;100.00
71165;BME280;58859;55.132;-1.586;2023-06-14T05:22:51;101809.53;;;22.52;100.00
71165;BME280;58859;55.132;-1.586;2023-06-14T05:25:18;101809.97;;;22.15;100.00
71165;BME280;58859;55.132;-1.586;2023-06-14T05:27:44;101803.44;;;22.58;100.00
71165;BME280;58859;55.132;-1.586;2023-06-14T05:30:10;101813.09;;;22.31;100.00
71165;BME280;58859;55.132;-1.586;2023-06-14T05:32:35;101811.88;;;21.93;100.00
71165;BME280;58859;55.132;-1.586;2023-06-14T05:35:01;101810.19;;;22.20;100.00
71165;BME280;58859;55.132;-1.586;2023-06-14T05:37:26;101817.31;;;22.60;100.00
71165;BME280;58859;55.132;-1.586;2023-06-14T05:39:52;101812.94;;;22.33;100.00
71165;BME280;58859;55.132;-1.586;2023-06-14T05:42:17;101805.75;;;22.74;100.00
71165;BME280;58859;55.132;-1.586;2023-06-14T05:44:42;101815.94;;;22.64;100.00
71165;BME280;58859;55.132;-1.586;2023-06-14T05:47:08;101816.47;;;22.60;100.00
71165;BME280;58859;55.132;-1.586;2023-06-14T05:49:33;101819.22;;;22.79;100.00
71165;BME280;58859;55.132;-1.586;2023-06-14T05:51:58;101808.25;;;22.89;100.00
71165;BME280;58859;55.132;-1.586;2023-06-14T05:54:24;101813.34;;;21.96;100.00
71165;BME280;58859;55.132;-1.586;2023-06-14T05:56:49;101809.78;;;20.26;100.00
71165;BME280;58859;55.132;-1.586;2023-06-14T05:59:15;101808.56;;;21.14;100.00
71165;BME280;58859;55.132;-1.586;2023-06-14T06:01:40;101813.78;;;20.72;100.00
71165;BME280;58859;55.132;-1.586;2023-06-14T06:04:05;101798.03;;;21.98;100.00
71165;BME280;58859;55.132;-1.586;2023-06-14T06:06:31;101799.25;;;21.18;100.00
71165;BME280;58859;55.132;-1.586;2023-06-14T06:08:57;101817.81;;;20.68;100.00
71165;BME280;58859;55.132;-1.586;2023-06-14T06:11:23;101810.91;;;21.45;100.00
71165;BME280;58859;55.132;-1.586;2023-06-14T06:13:48;101804.19;;;20.86;100.00
71165;BME280;58859;55.132;-1.586;2023-06-14T06:16:14;101807.38;;;20.60;100.00
71165;BME280;58859;55.132;-1.586;2023-06-14T06:18:40;101809.84;;;22.29;100.00
71165;BME280;58859;55.132;-1.586;2023-06-14T06:21:06;101816.16;;;22.69;100.00
71165;BME280;58859;55.132;-1.586;2023-06-14T06:23:31;101812.13;;;21.49;100.00
71165;BME280;58859;55.132;-1.586;2023-06-14T06:25:57;101816.28;;;21.31;100.00
71165;BME280;58859;55.132;-1.586;2023-06-14T06:28:22;101823.19;;;21.10;100.00
71165;BME280;58859;55.132;-1.586;2023-06-14T06:30:48;101823.09;;;20.83;100.00
71165;BME280;58859;55.132;-1.586;2023-06-14T06:33:13;101818.19;;;21.92;100.00
71165;BME280;58859;55.132;-1.586;2023-06-14T06:35:39;101819.84;;;21.93;100.00
71165;BME280;58859;55.132;-1.586;2023-06-14T06:38:05;101812.81;;;21.58;100.00
71165;BME280;58859;55.132;-1.586;2023-06-14T06:40:30;101819.28;;;21.28;100.00
71165;BME280;58859;55.132;-1.586;2023-06-14T06:42:56;101824.66;;;22.17;100.00
71165;BME280;58859;55.132;-1.586;2023-06-14T06:45:21;101827.91;;;21.36;100.00
71165;BME280;58859;55.132;-1.586;2023-06-14T06:47:48;101819.25;;;21.98;100.00
71165;BME280;58859;55.132;-1.586;2023-06-14T06:50:14;101829.84;;;21.49;100.00
71165;BME280;58859;55.132;-1.586;2023-06-14T06:52:39;101831.28;;;21.72;100.00
71165;BME280;58859;55.132;-1.586;2023-06-14T06:55:05;101826.34;;;22.31;100.00
71165;BME280;58859;55.132;-1.586;2023-06-14T06:57:31;101828.00;;;22.32;100.00
71165;BME280;58859;55.132;-1.586;2023-06-14T06:59:57;101823.59;;;23.20;100.00
71165;BME280;58859;55.132;-1.586;2023-06-14T07:02:22;101821.00;;;23.39;100.00
71165;BME280;58859;55.132;-1.586;2023-06-14T07:04:47;101828.75;;;24.57;100.00
71165;BME280;58859;55.132;-1.586;2023-06-14T07:07:13;101827.03;;;25.14;100.00
71165;BME280;58859;55.132;-1.586;2023-06-14T07:09:38;101831.38;;;25.08;100.00
71165;BME280;58859;55.132;-1.586;2023-06-14T07:12:04;101818.69;;;25.60;100.00
71165;BME280;58859;55.132;-1.586;2023-06-14T07:14:30;101830.88;;;25.49;100.00
71165;BME280;58859;55.132;-1.586;2023-06-14T07:16:55;101837.28;;;24.09;100.00
71165;BME280;58859;55.132;-1.586;2023-06-14T07:19:21;101834.47;;;25.05;100.00
71165;BME280;58859;55.132;-1.586;2023-06-14T07:21:46;101836.63;;;25.15;100.00
71165;BME280;58859;55.132;-1.586;2023-06-14T07:24:11;101840.16;;;24.14;100.00
71165;BME280;58859;55.132;-1.586;2023-06-14T07:26:37;101838.25;;;24.85;100.00
71165;BME280;58859;55.132;-1.586;2023-06-14T07:29:02;101833.78;;;25.66;100.00
71165;BME280;58859;55.132;-1.586;2023-06-14T07:31:28;101842.34;;;25.19;100.00
71165;BME280;58859;55.132;-1.586;2023-06-14T07:33:53;101847.09;;;25.17;100.00
71165;BME280;58859;55.132;-1.586;2023-06-14T07:36:19;101845.66;;;25.45;100.00
71165;BME280;58859;55.132;-1.586;2023-06-14T07:38:45;101845.41;;;25.53;100.00
71165;BME280;58859;55.132;-1.586;2023-06-14T07:41:11;101846.69;;;26.66;100.00
71165;BME280;58859;55.132;-1.586;2023-06-14T07:43:36;101842.53;;;25.98;100.00
71165;BME280;58859;55.132;-1.586;2023-06-14T07:46:02;101857.69;;;25.97;100.00
71165;BME280;58859;55.132;-1.586;2023-06-14T07:48:28;101845.22;;;26.52;100.00
71165;BME280;58859;55.132;-1.586;2023-06-14T07:50:53;101845.03;;;25.93;100.00
71165;BME280;58859;55.132;-1.586;2023-06-14T07:53:18;101844.00;;;26.12;100.00
71165;BME280;58859;55.132;-1.586;2023-06-14T07:55:44;101847.59;;;27.20;100.00
71165;BME280;58859;55.132;-1.586;2023-06-14T07:58:09;101841.69;;;25.97;100.00
71165;BME280;58859;55.132;-1.586;2023-06-14T08:00:36;101847.97;;;26.27;100.00
71165;BME280;58859;55.132;-1.586;2023-06-14T08:03:01;101847.81;;;26.59;100.00
71165;BME280;58859;55.132;-1.586;2023-06-14T08:05:28;101847.78;;;26.04;100.00
71165;BME280;58859;55.132;-1.586;2023-06-14T08:07:54;101848.44;;;26.00;100.00
71165;BME280;58859;55.132;-1.586;2023-06-14T08:10:20;101853.34;;;26.03;99.40
71165;BME280;58859;55.132;-1.586;2023-06-14T08:12:46;101857.06;;;26.02;100.00
71165;BME280;58859;55.132;-1.586;2023-06-14T08:15:11;101859.31;;;27.72;100.00
71165;BME280;58859;55.132;-1.586;2023-06-14T08:17:37;101859.75;;;27.46;100.00
71165;BME280;58859;55.132;-1.586;2023-06-14T08:20:03;101858.84;;;27.98;100.00
71165;BME280;58859;55.132;-1.586;2023-06-14T08:22:30;101860.47;;;26.63;100.00
71165;BME280;58859;55.132;-1.586;2023-06-14T08:24:57;101861.63;;;27.15;99.56
71165;BME280;58859;55.132;-1.586;2023-06-14T08:27:23;101873.00;;;26.81;100.00
71165;BME280;58859;55.132;-1.586;2023-06-14T08:29:49;101872.00;;;26.03;100.00
71165;BME280;58859;55.132;-1.586;2023-06-14T08:32:14;101873.50;;;25.99;100.00
71165;BME280;58859;55.132;-1.586;2023-06-14T08:34:39;101870.94;;;26.47;100.00
71165;BME280;58859;55.132;-1.586;2023-06-14T08:37:05;101872.09;;;27.58;100.00
71165;BME280;58859;55.132;-1.586;2023-06-14T08:39:31;101877.44;;;26.14;100.00
71165;BME280;58859;55.132;-1.586;2023-06-14T08:41:57;101878.84;;;25.74;100.00
71165;BME280;58859;55.132;-1.586;2023-06-14T08:44:23;101882.47;;;26.04;100.00
71165;BME280;58859;55.132;-1.586;2023-06-14T08:46:48;101885.41;;;26.39;100.00
71165;BME280;58859;55.132;-1.586;2023-06-14T08:49:16;101877.81;;;26.72;100.00
71165;BME280;58859;55.132;-1.586;2023-06-14T08:51:43;101875.03;;;26.06;100.00
71165;BME280;58859;55.132;-1.586;2023-06-14T08:54:10;101874.66;;;26.03;100.00
71165;BME280;58859;55.132;-1.586;2023-06-14T08:56:38;101873.06;;;26.74;100.00
71165;BME280;58859;55.132;-1.586;2023-06-14T08:59:03;101873.69;;;26.58;100.00
71165;BME280;58859;55.132;-1.586;2023-06-14T09:01:33;101878.78;;;27.08;100.00
71165;BME280;58859;55.132;-1.586;2023-06-14T09:03:59;101886.88;;;26.90;100.00
71165;BME280;58859;55.132;-1.586;2023-06-14T09:06:24;101878.16;;;26.94;100.00
71165;BME280;58859;55.132;-1.586;2023-06-14T09:08:50;101875.22;;;26.84;100.00
71165;BME280;58859;55.132;-1.586;2023-06-14T09:11:18;101876.00;;;26.18;100.00
71165;BME280;58859;55.132;-1.586;2023-06-14T09:13:45;101877.00;;;26.72;100.00
71165;BME280;58859;55.132;-1.586;2023-06-14T09:16:11;101880.34;;;26.31;100.00
71165;BME280;58859;55.132;-1.586;2023-06-14T09:18:41;101870.81;;;27.95;100.00
71165;BME280;58859;55.132;-1.586;2023-06-14T09:21:09;101876.84;;;26.12;100.00
71165;BME280;58859;55.132;-1.586;2023-06-14T09:23:39;101880.59;;;26.30;100.00
71165;BME280;58859;55.132;-1.586;2023-06-14T09:26:12;101887.22;;;26.93;100.00
71165;BME280;58859;55.132;-1.586;2023-06-14T09:28:48;101888.88;;;26.58;100.00
71165;BME280;58859;55.132;-1.586;2023-06-14T09:31:16;101887.78;;;27.66;100.00
71165;BME280;58859;55.132;-1.586;2023-06-14T09:33:43;101887.91;;;26.70;100.00
71165;BME280;58859;55.132;-1.586;2023-06-14T09:36:17;101888.69;;;27.07;100.00
71165;BME280;58859;55.132;-1.586;2023-06-14T09:38:57;101888.94;;;26.88;100.00
71165;BME280;58859;55.132;-1.586;2023-06-14T09:44:02;101890.31;;;26.78;100.00
71165;BME280;58859;55.132;-1.586;2023-06-14T09:46:29;101896.25;;;27.22;100.00
71165;BME280;58859;55.132;-1.586;2023-06-14T09:48:56;101894.75;;;27.56;100.00
71165;BME280;58859;55.132;-1.586;2023-06-14T09:51:25;101891.09;;;27.38;100.00
71165;BME280;58859;55.132;-1.586;2023-06-14T09:53:52;101898.59;;;28.41;100.00
71165;BME280;58859;55.132;-1.586;2023-06-14T09:56:22;101892.16;;;28.65;100.00
71165;BME280;58859;55.132;-1.586;2023-06-14T09:58:50;101892.13;;;28.14;100.00
71165;BME280;58859;55.132;-1.586;2023-06-14T10:01:20;101892.81;;;27.33;100.00
71165;BME280;58859;55.132;-1.586;2023-06-14T10:03:46;101896.94;;;27.59;100.00
71165;BME280;58859;55.132;-1.586;2023-06-14T10:06:13;101889.66;;;26.95;100.00
71165;BME280;58859;55.132;-1.586;2023-06-14T10:08:39;101892.19;;;27.49;100.00
71165;BME280;58859;55.132;-1.586;2023-06-14T10:11:05;101902.91;;;27.72;100.00
71165;BME280;58859;55.132;-1.586;2023-06-14T10:13:32;101896.72;;;28.41;100.00
71165;BME280;58859;55.132;-1.586;2023-06-14T10:16:24;101892.13;;;28.14;100.00
71165;BME280;58859;55.132;-1.586;2023-06-14T10:19:02;101887.84;;;28.64;100.00
71165;BME280;58859;55.132;-1.586;2023-06-14T10:24:00;101899.44;;;27.83;100.00
71165;BME280;58859;55.132;-1.586;2023-06-14T10:26:28;101897.09;;;27.64;100.00
71165;BME280;58859;55.132;-1.586;2023-06-14T10:29:16;101895.94;;;29.54;100.00
71165;BME280;58859;55.132;-1.586;2023-06-14T10:31:46;101901.97;;;28.36;100.00
71165;BME280;58859;55.132;-1.586;2023-06-14T10:34:21;101905.91;;;27.76;100.00
71165;BME280;58859;55.132;-1.586;2023-06-14T10:37:03;101901.28;;;27.30;100.00
71165;BME280;58859;55.132;-1.586;2023-06-14T10:39:29;101902.59;;;28.78;100.00
71165;BME280;58859;55.132;-1.586;2023-06-14T10:41:57;101896.72;;;27.60;100.00
71165;BME280;58859;55.132;-1.586;2023-06-14T10:46:54;101902.16;;;27.54;100.00
71165;BME280;58859;55.132;-1.586;2023-06-14T10:49:20;101903.19;;;29.53;100.00
71165;BME280;58859;55.132;-1.586;2023-06-14T10:52:02;101903.84;;;28.36;100.00
71165;BME280;58859;55.132;-1.586;2023-06-14T10:54:28;101893.28;;;28.18;100.00
71165;BME280;58859;55.132;-1.586;2023-06-14T10:56:53;101898.63;;;28.29;100.00
71165;BME280;58859;55.132;-1.586;2023-06-14T10:59:20;101898.19;;;26.85;100.00
71165;BME280;58859;55.132;-1.586;2023-06-14T11:02:27;101897.19;;;28.38;100.00
71165;BME280;58859;55.132;-1.586;2023-06-14T11:05:03;101889.41;;;27.44;100.00
71165;BME280;58859;55.132;-1.586;2023-06-14T11:13:03;101885.22;;;28.41;100.00
71165;BME280;58859;55.132;-1.586;2023-06-14T11:15:33;101885.94;;;28.76;100.00
71165;BME280;58859;55.132;-1.586;2023-06-14T11:18:08;101875.22;;;30.21;96.19
71165;BME280;58859;55.132;-1.586;2023-06-14T11:20:36;101887.97;;;28.58;100.00
71165;BME280;58859;55.132;-1.586;2023-06-14T11:23:03;101876.44;;;28.97;99.23
71165;BME280;58859;55.132;-1.586;2023-06-14T11:25:29;101875.94;;;29.78;100.00
71165;BME280;58859;55.132;-1.586;2023-06-14T11:27:55;101863.81;;;27.48;100.00
71165;BME280;58859;55.132;-1.586;2023-06-14T11:30:21;101874.19;;;28.03;96.24
71165;BME280;58859;55.132;-1.586;2023-06-14T11:32:47;101877.22;;;28.18;100.00
71165;BME280;58859;55.132;-1.586;2023-06-14T11:35:13;101877.25;;;28.69;94.88
71165;BME280;58859;55.132;-1.586;2023-06-14T11:37:39;101824.34;;;28.36;96.54
71165;BME280;58859;55.132;-1.586;2023-06-14T11:40:07;101874.66;;;28.23;100.00
71165;BME280;58859;55.132;-1.586;2023-06-14T11:42:33;101874.44;;;28.01;100.00
71165;BME280;58859;55.132;-1.586;2023-06-14T11:45:00;101873.84;;;29.02;100.00
71165;BME280;58859;55.132;-1.586;2023-06-14T11:47:36;101874.97;;;29.34;94.93
71165;BME280;58859;55.132;-1.586;2023-06-14T11:50:03;101873.25;;;28.32;100.00
71165;BME280;58859;55.132;-1.586;2023-06-14T11:52:29;101874.31;;;28.99;99.37
71165;BME280;58859;55.132;-1.586;2023-06-14T11:54:55;101872.78;;;29.64;100.00
71165;BME280;58859;55.132;-1.586;2023-06-14T11:57:21;101870.03;;;29.43;100.00
71165;BME280;58859;55.132;-1.586;2023-06-14T11:59:46;101874.56;;;29.42;100.00
71165;BME280;58859;55.132;-1.586;2023-06-14T12:02:17;101872.53;;;28.36;100.00
71165;BME280;58859;55.132;-1.586;2023-06-14T12:04:51;101876.94;;;27.08;100.00
71165;BME280;58859;55.132;-1.586;2023-06-14T12:07:18;101871.78;;;28.64;100.00
71165;BME280;58859;55.132;-1.586;2023-06-14T12:12:21;101872.94;;;28.05;100.00
71165;BME280;58859;55.132;-1.586;2023-06-14T12:14:47;101868.13;;;28.30;100.00
71165;BME280;58859;55.132;-1.586;2023-06-14T12:17:13;101871.84;;;27.60;100.00
71165;BME280;58859;55.132;-1.586;2023-06-14T12:19:43;101863.25;;;27.16;100.00
71165;BME280;58859;55.132;-1.586;2023-06-14T12:22:12;101867.44;;;28.00;100.00
71165;BME280;58859;55.132;-1.586;2023-06-14T12:24:38;101869.16;;;26.22;100.00
71165;BME280;58859;55.132;-1.586;2023-06-14T12:27:04;101876.84;;;27.68;100.00
71165;BME280;58859;55.132;-1.586;2023-06-14T12:29:31;101877.78;;;27.85;100.00
71165;BME280;58859;55.132;-1.586;2023-06-14T12:31:57;101878.47;;;26.86;100.00
71165;BME280;58859;55.132;-1.586;2023-06-14T12:34:23;101878.13;;;27.65;100.00
71165;BME280;58859;55.132;-1.586;2023-06-14T12:36:50;101882.16;;;27.45;100.00
71165;BME280;58859;55.132;-1.586;2023-06-14T12:39:15;101880.47;;;27.20;100.00
71165;BME280;58859;55.132;-1.586;2023-06-14T12:41:41;101881.41;;;27.56;100.00
71165;BME280;58859;55.132;-1.586;2023-06-14T12:44:07;101872.91;;;28.80;100.00
71165;BME280;58859;55.132;-1.586;2023-06-14T12:46:33;101869.44;;;28.05;100.00